sensor_id;sensor_type;location;lat;lon;timestamp;P1;durP1;ratioP1;P2;durP2;ratioP2
17727;SDS011;8984;49.268;12.302;2023-02-25T00:01:10;2.00;;;1.90;;
17727;SDS011;8984;49.268;12.302;2023-02-25T00:03:38;1.80;;;1.70;;
17727;SDS011;8984;49.268;12.302;2023-02-25T00:06:06;1.90;;;1.80;;
17727;SDS011;8984;49.268;12.302;2023-02-25T00:08:37;2.30;;;2.10;;
17727;SDS011;8984;49.268;12.302;2023-02-25T00:11:04;2.50;;;2.30;;
17727;SDS011;8984;49.268;12.302;2023-02-25T00:13:32;3.17;;;2.40;;
17727;SDS011;8984;49.268;12.302;2023-02-25T00:16:01;2.70;;;2.50;;
17727;SDS011;8984;49.268;12.302;2023-02-25T00:18:30;3.00;;;2.60;;
17727;SDS011;8984;49.268;12.302;2023-02-25T00:20:57;3.03;;;2.83;;
17727;SDS011;8984;49.268;12.302;2023-02-25T00:23:24;3.67;;;3.00;;
17727;SDS011;8984;49.268;12.302;2023-02-25T00:25:56;4.80;;;3.20;;
17727;SDS011;8984;49.268;12.302;2023-02-25T00:28:24;3.67;;;3.30;;
17727;SDS011;8984;49.268;12.302;2023-02-25T00:30:50;3.90;;;3.60;;
17727;SDS011;8984;49.268;12.302;2023-02-25T00:33:17;3.50;;;3.10;;
17727;SDS011;8984;49.268;12.302;2023-02-25T00:35:45;4.47;;;3.40;;
17727;SDS011;8984;49.268;12.302;2023-02-25T00:38:13;3.87;;;3.50;;
17727;SDS011;8984;49.268;12.302;2023-02-25T00:40:40;3.80;;;3.50;;
17727;SDS011;8984;49.268;12.302;2023-02-25T00:43:07;4.03;;;3.73;;
17727;SDS011;8984;49.268;12.302;2023-02-25T00:45:34;4.60;;;4.20;;
17727;SDS011;8984;49.268;12.302;2023-02-25T00:48:04;4.77;;;4.27;;
17727;SDS011;8984;49.268;12.302;2023-02-25T00:50:31;5.80;;;4.67;;
17727;SDS011;8984;49.268;12.302;2023-02-25T00:52:59;4.47;;;4.07;;
17727;SDS011;8984;49.268;12.302;2023-02-25T00:55:26;5.43;;;4.93;;
17727;SDS011;8984;49.268;12.302;2023-02-25T00:57:57;5.23;;;4.73;;
17727;SDS011;8984;49.268;12.302;2023-02-25T01:00:25;4.40;;;4.00;;
17727;SDS011;8984;49.268;12.302;2023-02-25T01:02:54;5.00;;;4.53;;
17727;SDS011;8984;49.268;12.302;2023-02-25T01:05:21;5.83;;;4.73;;
17727;SDS011;8984;49.268;12.302;2023-02-25T01:07:49;5.37;;;4.67;;
17727;SDS011;8984;49.268;12.302;2023-02-25T01:10:17;4.63;;;4.13;;
17727;SDS011;8984;49.268;12.302;2023-02-25T01:12:44;6.13;;;4.70;;
17727;SDS011;8984;49.268;12.302;2023-02-25T01:15:11;5.93;;;4.47;;
17727;SDS011;8984;49.268;12.302;2023-02-25T01:17:38;5.30;;;4.37;;
17727;SDS011;8984;49.268;12.302;2023-02-25T01:20:05;5.43;;;4.67;;
17727;SDS011;8984;49.268;12.302;2023-02-25T01:22:36;5.50;;;4.60;;
17727;SDS011;8984;49.268;12.302;2023-02-25T01:25:06;5.07;;;4.57;;
17727;SDS011;8984;49.268;12.302;2023-02-25T01:27:37;5.47;;;4.57;;
17727;SDS011;8984;49.268;12.302;2023-02-25T01:30:05;5.20;;;4.70;;
17727;SDS011;8984;49.268;12.302;2023-02-25T01:32:32;5.27;;;4.77;;
17727;SDS011;8984;49.268;12.302;2023-02-25T01:34:59;6.50;;;4.73;;
17727;SDS011;8984;49.268;12.302;2023-02-25T01:37:26;5.50;;;4.40;;
17727;SDS011;8984;49.268;12.302;2023-02-25T01:39:53;5.73;;;4.40;;
17727;SDS011;8984;49.268;12.302;2023-02-25T01:42:20;5.50;;;4.70;;
17727;SDS011;8984;49.268;12.302;2023-02-25T01:47:57;4.40;;;4.00;;
17727;SDS011;8984;49.268;12.302;2023-02-25T01:50:30;5.40;;;4.50;;
17727;SDS011;8984;49.268;12.302;2023-02-25T01:53:01;5.43;;;4.90;;
17727;SDS011;8984;49.268;12.302;2023-02-25T01:55:28;6.23;;;4.50;;
17727;SDS011;8984;49.268;12.302;2023-02-25T01:57:56;4.77;;;4.37;;
17727;SDS011;8984;49.268;12.302;2023-02-25T02:00:24;5.03;;;4.20;;
17727;SDS011;8984;49.268;12.302;2023-02-25T02:02:52;4.60;;;4.20;;
17727;SDS011;8984;49.268;12.302;2023-02-25T02:05:22;5.23;;;4.13;;
17727;SDS011;8984;49.268;12.302;2023-02-25T02:07:52;5.90;;;4.30;;
17727;SDS011;8984;49.268;12.302;2023-02-25T02:10:19;4.57;;;4.10;;
17727;SDS011;8984;49.268;12.302;2023-02-25T02:12:46;4.20;;;3.80;;
17727;SDS011;8984;49.268;12.302;2023-02-25T02:15:13;4.50;;;4.10;;
17727;SDS011;8984;49.268;12.302;2023-02-25T02:17:41;4.90;;;4.10;;
17727;SDS011;8984;49.268;12.302;2023-02-25T02:20:15;5.10;;;4.00;;
17727;SDS011;8984;49.268;12.302;2023-02-25T02:22:50;3.63;;;3.10;;
17727;SDS011;8984;49.268;12.302;2023-02-25T02:28:25;5.37;;;3.10;;
17727;SDS011;8984;49.268;12.302;2023-02-25T02:31:13;3.40;;;3.00;;
17727;SDS011;8984;49.268;12.302;2023-02-25T02:33:52;4.40;;;3.10;;
17727;SDS011;8984;49.268;12.302;2023-02-25T02:36:27;6.87;;;3.33;;
17727;SDS011;8984;49.268;12.302;2023-02-25T02:39:02;5.80;;;3.10;;
17727;SDS011;8984;49.268;12.302;2023-02-25T02:41:39;5.40;;;3.17;;
17727;SDS011;8984;49.268;12.302;2023-02-25T02:44:11;4.53;;;3.50;;
17727;SDS011;8984;49.268;12.302;2023-02-25T02:46:44;3.80;;;3.03;;
17727;SDS011;8984;49.268;12.302;2023-02-25T02:49:16;7.43;;;3.57;;
17727;SDS011;8984;49.268;12.302;2023-02-25T02:51:47;5.30;;;4.17;;
17727;SDS011;8984;49.268;12.302;2023-02-25T02:54:16;5.93;;;3.57;;
17727;SDS011;8984;49.268;12.302;2023-02-25T02:56:45;4.87;;;3.30;;
17727;SDS011;8984;49.268;12.302;2023-02-25T02:59:16;6.93;;;3.70;;
17727;SDS011;8984;49.268;12.302;2023-02-25T03:01:50;5.63;;;3.80;;
17727;SDS011;8984;49.268;12.302;2023-02-25T03:04:22;6.03;;;4.10;;
17727;SDS011;8984;49.268;12.302;2023-02-25T03:06:54;5.20;;;3.70;;
17727;SDS011;8984;49.268;12.302;2023-02-25T03:09:27;6.47;;;3.50;;
17727;SDS011;8984;49.268;12.302;2023-02-25T03:11:56;5.50;;;3.73;;
17727;SDS011;8984;49.268;12.302;2023-02-25T03:14:23;3.97;;;3.50;;
17727;SDS011;8984;49.268;12.302;2023-02-25T03:16:52;5.07;;;3.57;;
17727;SDS011;8984;49.268;12.302;2023-02-25T03:19:24;4.73;;;3.40;;
17727;SDS011;8984;49.268;12.302;2023-02-25T03:21:57;4.90;;;3.80;;
17727;SDS011;8984;49.268;12.302;2023-02-25T03:24:31;4.43;;;3.40;;
17727;SDS011;8984;49.268;12.302;2023-02-25T03:27:01;4.63;;;3.80;;
17727;SDS011;8984;49.268;12.302;2023-02-25T03:29:52;5.70;;;3.60;;
17727;SDS011;8984;49.268;12.302;2023-02-25T03:32:27;7.47;;;3.50;;
17727;SDS011;8984;49.268;12.302;2023-02-25T03:34:56;10.27;;;3.97;;
17727;SDS011;8984;49.268;12.302;2023-02-25T03:37:26;5.50;;;3.83;;
17727;SDS011;8984;49.268;12.302;2023-02-25T03:39:58;6.20;;;3.40;;
17727;SDS011;8984;49.268;12.302;2023-02-25T03:42:35;5.80;;;3.80;;
17727;SDS011;8984;49.268;12.302;2023-02-25T03:45:04;4.43;;;3.33;;
17727;SDS011;8984;49.268;12.302;2023-02-25T03:47:37;4.27;;;3.37;;
17727;SDS011;8984;49.268;12.302;2023-02-25T03:50:06;7.53;;;3.53;;
17727;SDS011;8984;49.268;12.302;2023-02-25T03:55:22;6.10;;;3.30;;
17727;SDS011;8984;49.268;12.302;2023-02-25T03:57:50;6.87;;;3.33;;
17727;SDS011;8984;49.268;12.302;2023-02-25T04:00:18;7.90;;;3.77;;
17727;SDS011;8984;49.268;12.302;2023-02-25T04:02:48;4.20;;;3.00;;
17727;SDS011;8984;49.268;12.302;2023-02-25T04:05:16;6.00;;;2.93;;
17727;SDS011;8984;49.268;12.302;2023-02-25T04:07:44;5.07;;;3.30;;
17727;SDS011;8984;49.268;12.302;2023-02-25T04:10:13;7.33;;;3.20;;
17727;SDS011;8984;49.268;12.302;2023-02-25T04:12:41;6.90;;;2.70;;
17727;SDS011;8984;49.268;12.302;2023-02-25T04:15:08;6.73;;;3.20;;
17727;SDS011;8984;49.268;12.302;2023-02-25T04:17:38;3.77;;;2.40;;
17727;SDS011;8984;49.268;12.302;2023-02-25T04:20:07;6.53;;;2.87;;
17727;SDS011;8984;49.268;12.302;2023-02-25T04:22:34;4.80;;;2.90;;
17727;SDS011;8984;49.268;12.302;2023-02-25T04:25:01;8.07;;;2.87;;
17727;SDS011;8984;49.268;12.302;2023-02-25T04:27:28;4.77;;;2.67;;
17727;SDS011;8984;49.268;12.302;2023-02-25T04:29:56;6.97;;;2.97;;
17727;SDS011;8984;49.268;12.302;2023-02-25T04:32:23;5.33;;;2.57;;
17727;SDS011;8984;49.268;12.302;2023-02-25T04:34:50;5.83;;;2.60;;
17727;SDS011;8984;49.268;12.302;2023-02-25T04:37:18;9.20;;;2.67;;
17727;SDS011;8984;49.268;12.302;2023-02-25T04:39:45;6.17;;;2.97;;
17727;SDS011;8984;49.268;12.302;2023-02-25T04:42:12;8.03;;;3.47;;
17727;SDS011;8984;49.268;12.302;2023-02-25T04:44:38;7.20;;;3.13;;
17727;SDS011;8984;49.268;12.302;2023-02-25T04:47:05;6.40;;;2.90;;
17727;SDS011;8984;49.268;12.302;2023-02-25T04:49:32;5.67;;;2.83;;
17727;SDS011;8984;49.268;12.302;2023-02-25T04:52:08;6.23;;;3.20;;
17727;SDS011;8984;49.268;12.302;2023-02-25T04:54:38;8.67;;;2.80;;
17727;SDS011;8984;49.268;12.302;2023-02-25T04:57:04;7.00;;;2.90;;
17727;SDS011;8984;49.268;12.302;2023-02-25T04:59:31;5.53;;;3.23;;
17727;SDS011;8984;49.268;12.302;2023-02-25T05:01:58;6.97;;;3.77;;
17727;SDS011;8984;49.268;12.302;2023-02-25T05:04:25;5.93;;;3.20;;
17727;SDS011;8984;49.268;12.302;2023-02-25T05:06:52;6.60;;;3.47;;
17727;SDS011;8984;49.268;12.302;2023-02-25T05:09:18;6.73;;;3.43;;
17727;SDS011;8984;49.268;12.302;2023-02-25T05:11:47;5.73;;;3.63;;
17727;SDS011;8984;49.268;12.302;2023-02-25T05:14:14;7.40;;;3.80;;
17727;SDS011;8984;49.268;12.302;2023-02-25T05:16:41;7.53;;;3.70;;
17727;SDS011;8984;49.268;12.302;2023-02-25T05:19:08;9.73;;;4.60;;
17727;SDS011;8984;49.268;12.302;2023-02-25T05:21:34;10.67;;;4.10;;
17727;SDS011;8984;49.268;12.302;2023-02-25T05:24:01;7.53;;;3.70;;
17727;SDS011;8984;49.268;12.302;2023-02-25T05:26:28;6.83;;;3.67;;
17727;SDS011;8984;49.268;12.302;2023-02-25T05:28:57;7.80;;;3.70;;
17727;SDS011;8984;49.268;12.302;2023-02-25T05:31:23;8.40;;;3.37;;
17727;SDS011;8984;49.268;12.302;2023-02-25T05:33:50;6.23;;;3.53;;
17727;SDS011;8984;49.268;12.302;2023-02-25T05:36:17;25.87;;;14.27;;
17727;SDS011;8984;49.268;12.302;2023-02-25T05:38:45;13.83;;;7.37;;
17727;SDS011;8984;49.268;12.302;2023-02-25T05:41:12;8.30;;;5.60;;
17727;SDS011;8984;49.268;12.302;2023-02-25T05:43:40;10.20;;;6.50;;
17727;SDS011;8984;49.268;12.302;2023-02-25T05:46:11;9.47;;;5.70;;
17727;SDS011;8984;49.268;12.302;2023-02-25T05:48:39;6.60;;;4.30;;
17727;SDS011;8984;49.268;12.302;2023-02-25T05:51:11;9.50;;;4.47;;
17727;SDS011;8984;49.268;12.302;2023-02-25T05:53:39;8.83;;;4.93;;
17727;SDS011;8984;49.268;12.302;2023-02-25T05:56:10;7.57;;;4.77;;
17727;SDS011;8984;49.268;12.302;2023-02-25T05:58:39;6.53;;;5.07;;
17727;SDS011;8984;49.268;12.302;2023-02-25T06:01:06;9.13;;;4.90;;
17727;SDS011;8984;49.268;12.302;2023-02-25T06:03:37;9.73;;;4.57;;
17727;SDS011;8984;49.268;12.302;2023-02-25T06:06:04;7.83;;;4.40;;
17727;SDS011;8984;49.268;12.302;2023-02-25T06:08:32;9.70;;;4.20;;
17727;SDS011;8984;49.268;12.302;2023-02-25T06:10:59;8.20;;;4.07;;
17727;SDS011;8984;49.268;12.302;2023-02-25T06:13:26;8.20;;;4.00;;
17727;SDS011;8984;49.268;12.302;2023-02-25T06:15:53;9.60;;;3.83;;
17727;SDS011;8984;49.268;12.302;2023-02-25T06:18:19;5.80;;;3.40;;
17727;SDS011;8984;49.268;12.302;2023-02-25T06:20:48;10.33;;;3.70;;
17727;SDS011;8984;49.268;12.302;2023-02-25T06:23:16;8.67;;;4.10;;
17727;SDS011;8984;49.268;12.302;2023-02-25T06:25:42;3.77;;;2.80;;
17727;SDS011;8984;49.268;12.302;2023-02-25T06:28:09;4.70;;;3.13;;
17727;SDS011;8984;49.268;12.302;2023-02-25T06:30:36;6.77;;;3.60;;
17727;SDS011;8984;49.268;12.302;2023-02-25T06:33:06;5.17;;;3.50;;
17727;SDS011;8984;49.268;12.302;2023-02-25T06:35:32;5.47;;;3.07;;
17727;SDS011;8984;49.268;12.302;2023-02-25T06:38:01;7.40;;;3.50;;
17727;SDS011;8984;49.268;12.302;2023-02-25T06:40:28;7.80;;;3.40;;
17727;SDS011;8984;49.268;12.302;2023-02-25T06:42:57;6.93;;;3.33;;
17727;SDS011;8984;49.268;12.302;2023-02-25T06:45:23;8.10;;;3.30;;
17727;SDS011;8984;49.268;12.302;2023-02-25T06:47:50;10.23;;;3.87;;
17727;SDS011;8984;49.268;12.302;2023-02-25T06:50:17;9.37;;;3.77;;
17727;SDS011;8984;49.268;12.302;2023-02-25T06:52:44;9.77;;;4.20;;
17727;SDS011;8984;49.268;12.302;2023-02-25T06:55:12;6.73;;;3.23;;
17727;SDS011;8984;49.268;12.302;2023-02-25T06:57:39;7.20;;;3.53;;
17727;SDS011;8984;49.268;12.302;2023-02-25T07:00:06;10.77;;;3.70;;
17727;SDS011;8984;49.268;12.302;2023-02-25T07:02:34;7.90;;;3.50;;
17727;SDS011;8984;49.268;12.302;2023-02-25T07:05:01;8.33;;;3.90;;
17727;SDS011;8984;49.268;12.302;2023-02-25T07:07:29;7.23;;;3.40;;
17727;SDS011;8984;49.268;12.302;2023-02-25T07:09:56;10.43;;;3.17;;
17727;SDS011;8984;49.268;12.302;2023-02-25T07:12:24;9.50;;;4.03;;
17727;SDS011;8984;49.268;12.302;2023-02-25T07:14:51;7.77;;;3.43;;
17727;SDS011;8984;49.268;12.302;2023-02-25T07:17:18;5.13;;;3.60;;
17727;SDS011;8984;49.268;12.302;2023-02-25T07:19:45;7.37;;;3.03;;
17727;SDS011;8984;49.268;12.302;2023-02-25T07:22:12;6.40;;;3.53;;
17727;SDS011;8984;49.268;12.302;2023-02-25T07:24:40;8.53;;;3.17;;
17727;SDS011;8984;49.268;12.302;2023-02-25T07:27:07;8.83;;;4.13;;
17727;SDS011;8984;49.268;12.302;2023-02-25T07:29:35;6.73;;;3.50;;
17727;SDS011;8984;49.268;12.302;2023-02-25T07:32:02;7.10;;;3.50;;
17727;SDS011;8984;49.268;12.302;2023-02-25T07:34:29;7.77;;;3.40;;
17727;SDS011;8984;49.268;12.302;2023-02-25T07:36:56;7.87;;;4.03;;
17727;SDS011;8984;49.268;12.302;2023-02-25T07:39:23;11.03;;;3.60;;
17727;SDS011;8984;49.268;12.302;2023-02-25T07:41:49;7.77;;;3.63;;
17727;SDS011;8984;49.268;12.302;2023-02-25T07:44:16;9.77;;;3.93;;
17727;SDS011;8984;49.268;12.302;2023-02-25T07:46:44;8.13;;;5.30;;
17727;SDS011;8984;49.268;12.302;2023-02-25T07:49:11;8.50;;;4.50;;
17727;SDS011;8984;49.268;12.302;2023-02-25T07:51:38;8.90;;;5.10;;
17727;SDS011;8984;49.268;12.302;2023-02-25T07:54:04;11.13;;;5.53;;
17727;SDS011;8984;49.268;12.302;2023-02-25T07:56:31;9.27;;;4.00;;
17727;SDS011;8984;49.268;12.302;2023-02-25T07:58:58;9.93;;;5.07;;
17727;SDS011;8984;49.268;12.302;2023-02-25T08:01:26;9.03;;;5.40;;
17727;SDS011;8984;49.268;12.302;2023-02-25T08:03:56;10.43;;;4.70;;
17727;SDS011;8984;49.268;12.302;2023-02-25T08:06:25;12.70;;;6.73;;
17727;SDS011;8984;49.268;12.302;2023-02-25T08:08:52;12.30;;;5.00;;
17727;SDS011;8984;49.268;12.302;2023-02-25T08:11:20;20.03;;;8.83;;
17727;SDS011;8984;49.268;12.302;2023-02-25T08:13:47;24.97;;;12.07;;
17727;SDS011;8984;49.268;12.302;2023-02-25T08:16:15;10.57;;;4.43;;
17727;SDS011;8984;49.268;12.302;2023-02-25T08:18:43;9.50;;;3.90;;
17727;SDS011;8984;49.268;12.302;2023-02-25T08:21:13;10.40;;;4.43;;
17727;SDS011;8984;49.268;12.302;2023-02-25T08:23:42;8.40;;;4.10;;
17727;SDS011;8984;49.268;12.302;2023-02-25T08:26:09;8.57;;;4.67;;
17727;SDS011;8984;49.268;12.302;2023-02-25T08:28:35;11.60;;;3.90;;
17727;SDS011;8984;49.268;12.302;2023-02-25T08:31:05;8.73;;;3.77;;
17727;SDS011;8984;49.268;12.302;2023-02-25T08:33:32;8.93;;;4.50;;
17727;SDS011;8984;49.268;12.302;2023-02-25T08:36:04;9.33;;;4.80;;
17727;SDS011;8984;49.268;12.302;2023-02-25T08:38:34;8.07;;;3.50;;
17727;SDS011;8984;49.268;12.302;2023-02-25T08:41:02;5.80;;;3.93;;
17727;SDS011;8984;49.268;12.302;2023-02-25T08:43:29;9.13;;;4.17;;
17727;SDS011;8984;49.268;12.302;2023-02-25T08:45:57;9.60;;;3.93;;
17727;SDS011;8984;49.268;12.302;2023-02-25T08:48:24;10.53;;;4.40;;
17727;SDS011;8984;49.268;12.302;2023-02-25T08:50:50;10.13;;;4.23;;
17727;SDS011;8984;49.268;12.302;2023-02-25T08:53:17;9.43;;;3.83;;
17727;SDS011;8984;49.268;12.302;2023-02-25T08:55:45;8.30;;;3.63;;
17727;SDS011;8984;49.268;12.302;2023-02-25T08:58:12;11.00;;;5.90;;
17727;SDS011;8984;49.268;12.302;2023-02-25T09:00:39;8.57;;;3.60;;
17727;SDS011;8984;49.268;12.302;2023-02-25T09:03:06;10.20;;;4.47;;
17727;SDS011;8984;49.268;12.302;2023-02-25T09:05:33;10.03;;;3.53;;
17727;SDS011;8984;49.268;12.302;2023-02-25T09:08:02;8.20;;;3.80;;
17727;SDS011;8984;49.268;12.302;2023-02-25T09:10:29;8.27;;;3.53;;
17727;SDS011;8984;49.268;12.302;2023-02-25T09:12:57;8.27;;;3.70;;
17727;SDS011;8984;49.268;12.302;2023-02-25T09:15:24;6.63;;;3.20;;
17727;SDS011;8984;49.268;12.302;2023-02-25T09:17:51;8.00;;;3.53;;
17727;SDS011;8984;49.268;12.302;2023-02-25T09:20:18;14.57;;;7.23;;
17727;SDS011;8984;49.268;12.302;2023-02-25T09:22:45;7.37;;;3.57;;
17727;SDS011;8984;49.268;12.302;2023-02-25T09:25:11;9.20;;;3.27;;
17727;SDS011;8984;49.268;12.302;2023-02-25T09:27:38;6.03;;;3.10;;
17727;SDS011;8984;49.268;12.302;2023-02-25T09:30:07;5.73;;;3.00;;
17727;SDS011;8984;49.268;12.302;2023-02-25T09:32:35;11.30;;;3.30;;
17727;SDS011;8984;49.268;12.302;2023-02-25T09:35:02;6.37;;;3.93;;
17727;SDS011;8984;49.268;12.302;2023-02-25T09:37:31;9.43;;;4.20;;
17727;SDS011;8984;49.268;12.302;2023-02-25T09:39:58;8.00;;;3.53;;
17727;SDS011;8984;49.268;12.302;2023-02-25T09:42:27;6.77;;;4.23;;
17727;SDS011;8984;49.268;12.302;2023-02-25T09:44:59;7.53;;;3.17;;
17727;SDS011;8984;49.268;12.302;2023-02-25T09:47:31;6.57;;;3.27;;
17727;SDS011;8984;49.268;12.302;2023-02-25T09:50:04;9.33;;;3.60;;
17727;SDS011;8984;49.268;12.302;2023-02-25T09:52:33;8.23;;;2.93;;
17727;SDS011;8984;49.268;12.302;2023-02-25T09:55:05;7.40;;;3.23;;
17727;SDS011;8984;49.268;12.302;2023-02-25T09:57:40;10.63;;;3.10;;
17727;SDS011;8984;49.268;12.302;2023-02-25T10:00:13;7.70;;;2.90;;
17727;SDS011;8984;49.268;12.302;2023-02-25T10:02:47;5.13;;;2.80;;
17727;SDS011;8984;49.268;12.302;2023-02-25T10:05:21;6.17;;;2.90;;
17727;SDS011;8984;49.268;12.302;2023-02-25T10:07:55;7.70;;;3.17;;
17727;SDS011;8984;49.268;12.302;2023-02-25T10:10:29;9.60;;;3.23;;
17727;SDS011;8984;49.268;12.302;2023-02-25T10:13:04;6.67;;;2.97;;
17727;SDS011;8984;49.268;12.302;2023-02-25T10:15:45;5.87;;;2.80;;
17727;SDS011;8984;49.268;12.302;2023-02-25T10:18:32;7.73;;;3.67;;
17727;SDS011;8984;49.268;12.302;2023-02-25T10:21:10;7.73;;;3.03;;
17727;SDS011;8984;49.268;12.302;2023-02-25T10:23:50;9.33;;;3.13;;
17727;SDS011;8984;49.268;12.302;2023-02-25T10:26:29;8.90;;;3.20;;
17727;SDS011;8984;49.268;12.302;2023-02-25T10:29:01;13.93;;;6.97;;
17727;SDS011;8984;49.268;12.302;2023-02-25T10:31:31;7.77;;;4.30;;
17727;SDS011;8984;49.268;12.302;2023-02-25T10:34:03;5.10;;;3.07;;
17727;SDS011;8984;49.268;12.302;2023-02-25T10:36:46;5.40;;;3.07;;
17727;SDS011;8984;49.268;12.302;2023-02-25T10:39:17;10.27;;;3.90;;
17727;SDS011;8984;49.268;12.302;2023-02-25T10:41:44;6.93;;;3.37;;
17727;SDS011;8984;49.268;12.302;2023-02-25T10:44:10;5.60;;;3.40;;
17727;SDS011;8984;49.268;12.302;2023-02-25T10:46:39;7.73;;;3.40;;
17727;SDS011;8984;49.268;12.302;2023-02-25T10:49:15;5.90;;;2.93;;
17727;SDS011;8984;49.268;12.302;2023-02-25T10:51:57;5.90;;;3.07;;
17727;SDS011;8984;49.268;12.302;2023-02-25T10:54:27;5.80;;;2.93;;
17727;SDS011;8984;49.268;12.302;2023-02-25T10:56:54;4.47;;;3.00;;
17727;SDS011;8984;49.268;12.302;2023-02-25T10:59:26;6.80;;;3.00;;
17727;SDS011;8984;49.268;12.302;2023-02-25T11:01:55;5.47;;;3.13;;
17727;SDS011;8984;49.268;12.302;2023-02-25T11:04:26;8.87;;;2.93;;
17727;SDS011;8984;49.268;12.302;2023-02-25T11:06:56;7.20;;;3.20;;
17727;SDS011;8984;49.268;12.302;2023-02-25T11:09:27;7.83;;;2.97;;
17727;SDS011;8984;49.268;12.302;2023-02-25T11:12:08;6.73;;;3.03;;
17727;SDS011;8984;49.268;12.302;2023-02-25T11:14:42;6.83;;;3.20;;
17727;SDS011;8984;49.268;12.302;2023-02-25T11:17:11;8.87;;;3.00;;
17727;SDS011;8984;49.268;12.302;2023-02-25T11:19:43;6.37;;;2.83;;
17727;SDS011;8984;49.268;12.302;2023-02-25T11:22:15;5.93;;;2.97;;
17727;SDS011;8984;49.268;12.302;2023-02-25T11:24:43;6.37;;;3.37;;
17727;SDS011;8984;49.268;12.302;2023-02-25T11:27:22;7.60;;;3.57;;
17727;SDS011;8984;49.268;12.302;2023-02-25T11:29:52;11.77;;;3.30;;
17727;SDS011;8984;49.268;12.302;2023-02-25T11:32:25;9.40;;;3.63;;
17727;SDS011;8984;49.268;12.302;2023-02-25T11:34:55;7.13;;;3.30;;
17727;SDS011;8984;49.268;12.302;2023-02-25T11:37:28;4.30;;;3.53;;
17727;SDS011;8984;49.268;12.302;2023-02-25T11:40:02;13.57;;;3.20;;
17727;SDS011;8984;49.268;12.302;2023-02-25T11:42:58;6.23;;;2.70;;
17727;SDS011;8984;49.268;12.302;2023-02-25T11:45:28;7.27;;;2.53;;
17727;SDS011;8984;49.268;12.302;2023-02-25T11:47:56;3.93;;;2.40;;
17727;SDS011;8984;49.268;12.302;2023-02-25T11:50:25;6.43;;;3.33;;
17727;SDS011;8984;49.268;12.302;2023-02-25T11:52:58;4.93;;;2.47;;
17727;SDS011;8984;49.268;12.302;2023-02-25T11:55:41;7.33;;;2.70;;
17727;SDS011;8984;49.268;12.302;2023-02-25T11:58:19;6.13;;;2.70;;
17727;SDS011;8984;49.268;12.302;2023-02-25T12:00:54;4.47;;;2.60;;
17727;SDS011;8984;49.268;12.302;2023-02-25T12:03:31;5.27;;;2.63;;
17727;SDS011;8984;49.268;12.302;2023-02-25T12:06:13;4.87;;;2.60;;
17727;SDS011;8984;49.268;12.302;2023-02-25T12:08:54;4.10;;;2.50;;
17727;SDS011;8984;49.268;12.302;2023-02-25T12:17:57;4.00;;;2.10;;
17727;SDS011;8984;49.268;12.302;2023-02-25T12:27:04;8.07;;;4.30;;
17727;SDS011;8984;49.268;12.302;2023-02-25T12:29:49;4.13;;;2.77;;
17727;SDS011;8984;49.268;12.302;2023-02-25T12:32:32;4.33;;;2.27;;
17727;SDS011;8984;49.268;12.302;2023-02-25T12:41:31;5.63;;;3.20;;
17727;SDS011;8984;49.268;12.302;2023-02-25T12:44:17;7.00;;;3.97;;
17727;SDS011;8984;49.268;12.302;2023-02-25T12:47:10;4.07;;;2.93;;
17727;SDS011;8984;49.268;12.302;2023-02-25T12:49:53;6.17;;;3.60;;
17727;SDS011;8984;49.268;12.302;2023-02-25T12:52:35;6.23;;;3.10;;
17727;SDS011;8984;49.268;12.302;2023-02-25T12:55:29;7.70;;;3.73;;
17727;SDS011;8984;49.268;12.302;2023-02-25T12:58:34;4.77;;;2.60;;
17727;SDS011;8984;49.268;12.302;2023-02-25T13:01:11;2.43;;;2.17;;
17727;SDS011;8984;49.268;12.302;2023-02-25T13:04:03;3.03;;;2.77;;
17727;SDS011;8984;49.268;12.302;2023-02-25T13:13:08;5.03;;;2.73;;
17727;SDS011;8984;49.268;12.302;2023-02-25T13:15:54;3.03;;;2.67;;
17727;SDS011;8984;49.268;12.302;2023-02-25T13:18:31;5.50;;;2.73;;
17727;SDS011;8984;49.268;12.302;2023-02-25T13:21:13;5.97;;;2.53;;
17727;SDS011;8984;49.268;12.302;2023-02-25T13:23:54;5.30;;;2.60;;
17727;SDS011;8984;49.268;12.302;2023-02-25T13:26:42;4.33;;;2.40;;
17727;SDS011;8984;49.268;12.302;2023-02-25T13:29:30;3.30;;;2.63;;
17727;SDS011;8984;49.268;12.302;2023-02-25T13:32:14;3.27;;;2.30;;
17727;SDS011;8984;49.268;12.302;2023-02-25T13:35:03;2.97;;;2.40;;
17727;SDS011;8984;49.268;12.302;2023-02-25T13:37:40;3.83;;;2.40;;
17727;SDS011;8984;49.268;12.302;2023-02-25T13:40:24;4.70;;;2.60;;
17727;SDS011;8984;49.268;12.302;2023-02-25T13:43:12;5.03;;;2.63;;
17727;SDS011;8984;49.268;12.302;2023-02-25T13:46:00;3.93;;;2.83;;
17727;SDS011;8984;49.268;12.302;2023-02-25T13:48:56;6.33;;;2.90;;
17727;SDS011;8984;49.268;12.302;2023-02-25T13:51:44;1.70;;;1.60;;
17727;SDS011;8984;49.268;12.302;2023-02-25T13:54:41;1.53;;;1.43;;
17727;SDS011;8984;49.268;12.302;2023-02-25T13:57:29;1.67;;;1.57;;
17727;SDS011;8984;49.268;12.302;2023-02-25T14:00:20;1.30;;;1.30;;
17727;SDS011;8984;49.268;12.302;2023-02-25T14:03:05;1.90;;;1.80;;
17727;SDS011;8984;49.268;12.302;2023-02-25T14:05:47;1.97;;;1.87;;
17727;SDS011;8984;49.268;12.302;2023-02-25T14:08:27;3.50;;;2.60;;
17727;SDS011;8984;49.268;12.302;2023-02-25T14:11:17;1.77;;;1.40;;
17727;SDS011;8984;49.268;12.302;2023-02-25T14:14:05;1.73;;;1.63;;
17727;SDS011;8984;49.268;12.302;2023-02-25T14:16:53;1.60;;;1.50;;
17727;SDS011;8984;49.268;12.302;2023-02-25T14:19:39;1.50;;;1.40;;
17727;SDS011;8984;49.268;12.302;2023-02-25T14:22:22;1.55;;;1.45;;
17727;SDS011;8984;49.268;12.302;2023-02-25T14:24:58;2.47;;;1.33;;
17727;SDS011;8984;49.268;12.302;2023-02-25T14:27:30;1.43;;;1.33;;
17727;SDS011;8984;49.268;12.302;2023-02-25T14:30:15;1.40;;;1.30;;
17727;SDS011;8984;49.268;12.302;2023-02-25T14:32:53;1.37;;;1.30;;
17727;SDS011;8984;49.268;12.302;2023-02-25T14:35:50;1.70;;;1.60;;
17727;SDS011;8984;49.268;12.302;2023-02-25T14:38:31;2.00;;;1.90;;
17727;SDS011;8984;49.268;12.302;2023-02-25T14:41:17;2.33;;;1.80;;
17727;SDS011;8984;49.268;12.302;2023-02-25T14:43:55;1.90;;;1.50;;
17727;SDS011;8984;49.268;12.302;2023-02-25T14:46:28;2.10;;;1.97;;
17727;SDS011;8984;49.268;12.302;2023-02-25T14:48:59;2.17;;;1.97;;
17727;SDS011;8984;49.268;12.302;2023-02-25T14:51:43;2.00;;;1.90;;
17727;SDS011;8984;49.268;12.302;2023-02-25T14:54:40;2.37;;;1.90;;
17727;SDS011;8984;49.268;12.302;2023-02-25T14:57:55;1.80;;;1.70;;
17727;SDS011;8984;49.268;12.302;2023-02-25T15:00:50;3.40;;;3.10;;
17727;SDS011;8984;49.268;12.302;2023-02-25T15:06:29;1.70;;;1.60;;
17727;SDS011;8984;49.268;12.302;2023-02-25T15:09:09;3.20;;;2.10;;
17727;SDS011;8984;49.268;12.302;2023-02-25T15:12:08;4.17;;;3.77;;
17727;SDS011;8984;49.268;12.302;2023-02-25T15:17:48;2.10;;;2.00;;
17727;SDS011;8984;49.268;12.302;2023-02-25T15:20:34;1.70;;;1.60;;
17727;SDS011;8984;49.268;12.302;2023-02-25T15:23:04;1.77;;;1.37;;
17727;SDS011;8984;49.268;12.302;2023-02-25T15:25:43;1.70;;;1.60;;
17727;SDS011;8984;49.268;12.302;2023-02-25T15:31:22;2.17;;;1.93;;
17727;SDS011;8984;49.268;12.302;2023-02-25T15:37:10;3.73;;;2.70;;
17727;SDS011;8984;49.268;12.302;2023-02-25T15:39:46;3.50;;;2.90;;
17727;SDS011;8984;49.268;12.302;2023-02-25T15:42:15;4.67;;;2.73;;
17727;SDS011;8984;49.268;12.302;2023-02-25T15:50:58;4.63;;;2.53;;
17727;SDS011;8984;49.268;12.302;2023-02-25T15:53:43;3.73;;;3.20;;
17727;SDS011;8984;49.268;12.302;2023-02-25T16:05:19;2.70;;;2.50;;
17727;SDS011;8984;49.268;12.302;2023-02-25T16:07:50;8.80;;;7.20;;
17727;SDS011;8984;49.268;12.302;2023-02-25T16:10:30;4.70;;;3.27;;
17727;SDS011;8984;49.268;12.302;2023-02-25T16:13:01;2.63;;;2.40;;
17727;SDS011;8984;49.268;12.302;2023-02-25T16:15:30;2.63;;;2.27;;
17727;SDS011;8984;49.268;12.302;2023-02-25T16:18:03;3.13;;;2.73;;